sensor_id;sensor_type;location;lat;lon;timestamp;pressure;altitude;pressure_sealevel;temperature
23208;BMP180;11773;52.570;13.052;2022-10-13T00:01:39;101887.00;;;12.30
23208;BMP180;11773;52.570;13.052;2022-10-13T00:04:08;101891.00;;;12.30
23208;BMP180;11773;52.570;13.052;2022-10-13T00:06:38;101879.00;;;12.30
23208;BMP180;11773;52.570;13.052;2022-10-13T00:09:07;101880.00;;;12.20
23208;BMP180;11773;52.570;13.052;2022-10-13T00:11:37;101873.00;;;12.20
23208;BMP180;11773;52.570;13.052;2022-10-13T00:14:06;101884.00;;;12.20
23208;BMP180;11773;52.570;13.052;2022-10-13T00:16:36;101872.00;;;12.10
23208;BMP180;11773;52.570;13.052;2022-10-13T00:19:05;101878.00;;;12.10
23208;BMP180;11773;52.570;13.052;2022-10-13T00:21:36;101876.00;;;12.10
23208;BMP180;11773;52.570;13.052;2022-10-13T00:24:09;101881.00;;;12.10
23208;BMP180;11773;52.570;13.052;2022-10-13T00:26:39;101882.00;;;12.10
23208;BMP180;11773;52.570;13.052;2022-10-13T00:29:08;101880.00;;;12.10
23208;BMP180;11773;52.570;13.052;2022-10-13T00:31:38;101878.00;;;12.00
23208;BMP180;11773;52.570;13.052;2022-10-13T00:34:08;101887.00;;;12.10
23208;BMP180;11773;52.570;13.052;2022-10-13T00:36:38;101882.00;;;12.00
23208;BMP180;11773;52.570;13.052;2022-10-13T00:39:07;101871.00;;;12.00
23208;BMP180;11773;52.570;13.052;2022-10-13T00:41:37;101875.00;;;12.00
23208;BMP180;11773;52.570;13.052;2022-10-13T00:46:56;101873.00;;;12.00
23208;BMP180;11773;52.570;13.052;2022-10-13T00:49:25;101864.00;;;12.00
23208;BMP180;11773;52.570;13.052;2022-10-13T00:51:55;101865.00;;;12.00
23208;BMP180;11773;52.570;13.052;2022-10-13T00:54:24;101869.00;;;11.90
23208;BMP180;11773;52.570;13.052;2022-10-13T00:56:54;101884.00;;;11.90
23208;BMP180;11773;52.570;13.052;2022-10-13T00:59:26;101876.00;;;11.90
23208;BMP180;11773;52.570;13.052;2022-10-13T01:01:58;101861.00;;;11.90
23208;BMP180;11773;52.570;13.052;2022-10-13T01:04:35;101881.00;;;11.90
23208;BMP180;11773;52.570;13.052;2022-10-13T01:07:05;101869.00;;;11.90
23208;BMP180;11773;52.570;13.052;2022-10-13T01:09:35;101864.00;;;11.90
23208;BMP180;11773;52.570;13.052;2022-10-13T01:12:55;101870.00;;;11.80
23208;BMP180;11773;52.570;13.052;2022-10-13T01:18:31;101870.00;;;11.70
23208;BMP180;11773;52.570;13.052;2022-10-13T01:21:26;101850.00;;;11.70
23208;BMP180;11773;52.570;13.052;2022-10-13T01:27:01;101856.00;;;11.60
23208;BMP180;11773;52.570;13.052;2022-10-13T01:30:04;101850.00;;;11.60
23208;BMP180;11773;52.570;13.052;2022-10-13T01:33:26;101843.00;;;11.50
23208;BMP180;11773;52.570;13.052;2022-10-13T01:38:42;101829.00;;;11.50
23208;BMP180;11773;52.570;13.052;2022-10-13T01:41:36;101826.00;;;11.50
23208;BMP180;11773;52.570;13.052;2022-10-13T01:44:26;101832.00;;;11.50
23208;BMP180;11773;52.570;13.052;2022-10-13T01:46:56;101818.00;;;11.40
23208;BMP180;11773;52.570;13.052;2022-10-13T01:49:30;101815.00;;;11.50
23208;BMP180;11773;52.570;13.052;2022-10-13T01:52:05;101819.00;;;11.50
23208;BMP180;11773;52.570;13.052;2022-10-13T01:54:34;101810.00;;;11.50
23208;BMP180;11773;52.570;13.052;2022-10-13T01:57:25;101798.00;;;11.50
23208;BMP180;11773;52.570;13.052;2022-10-13T01:59:35;101803.00;;;11.40
23208;BMP180;11773;52.570;13.052;2022-10-13T02:02:23;101798.00;;;11.40
23208;BMP180;11773;52.570;13.052;2022-10-13T02:08:04;101802.00;;;11.30
23208;BMP180;11773;52.570;13.052;2022-10-13T02:10:50;101790.00;;;11.30
23208;BMP180;11773;52.570;13.052;2022-10-13T02:13:25;101784.00;;;11.20
23208;BMP180;11773;52.570;13.052;2022-10-13T02:15:58;101789.00;;;11.20
23208;BMP180;11773;52.570;13.052;2022-10-13T02:18:33;101791.00;;;11.20
23208;BMP180;11773;52.570;13.052;2022-10-13T02:21:04;101781.00;;;11.20
23208;BMP180;11773;52.570;13.052;2022-10-13T02:23:33;101801.00;;;11.20
23208;BMP180;11773;52.570;13.052;2022-10-13T02:26:04;101795.00;;;11.20
23208;BMP180;11773;52.570;13.052;2022-10-13T02:28:36;101781.00;;;11.20
23208;BMP180;11773;52.570;13.052;2022-10-13T02:31:08;101778.00;;;11.20
23208;BMP180;11773;52.570;13.052;2022-10-13T02:33:37;101767.00;;;11.20
23208;BMP180;11773;52.570;13.052;2022-10-13T02:36:07;101768.00;;;11.20
23208;BMP180;11773;52.570;13.052;2022-10-13T02:38:36;101764.00;;;11.20
23208;BMP180;11773;52.570;13.052;2022-10-13T02:41:06;101771.00;;;11.20
23208;BMP180;11773;52.570;13.052;2022-10-13T02:43:36;101760.00;;;11.20
23208;BMP180;11773;52.570;13.052;2022-10-13T02:46:06;101753.00;;;11.10
23208;BMP180;11773;52.570;13.052;2022-10-13T02:48:35;101755.00;;;11.10
23208;BMP180;11773;52.570;13.052;2022-10-13T02:51:05;101763.00;;;11.10
23208;BMP180;11773;52.570;13.052;2022-10-13T02:53:34;101753.00;;;11.10
23208;BMP180;11773;52.570;13.052;2022-10-13T02:56:04;101762.00;;;11.10
23208;BMP180;11773;52.570;13.052;2022-10-13T02:58:34;101756.00;;;11.10
23208;BMP180;11773;52.570;13.052;2022-10-13T03:01:10;101762.00;;;11.10
23208;BMP180;11773;52.570;13.052;2022-10-13T03:03:40;101771.00;;;11.10
23208;BMP180;11773;52.570;13.052;2022-10-13T03:06:10;101765.00;;;11.10
23208;BMP180;11773;52.570;13.052;2022-10-13T03:08:40;101762.00;;;11.00
23208;BMP180;11773;52.570;13.052;2022-10-13T03:11:09;101759.00;;;11.10
23208;BMP180;11773;52.570;13.052;2022-10-13T03:13:39;101752.00;;;11.10
23208;BMP180;11773;52.570;13.052;2022-10-13T03:16:08;101761.00;;;11.10
23208;BMP180;11773;52.570;13.052;2022-10-13T03:18:38;101745.00;;;11.10
23208;BMP180;11773;52.570;13.052;2022-10-13T03:21:08;101759.00;;;11.00
23208;BMP180;11773;52.570;13.052;2022-10-13T03:23:38;101741.00;;;11.00
23208;BMP180;11773;52.570;13.052;2022-10-13T03:26:08;101740.00;;;11.00
23208;BMP180;11773;52.570;13.052;2022-10-13T03:28:37;101751.00;;;11.00
23208;BMP180;11773;52.570;13.052;2022-10-13T03:31:09;101748.00;;;11.00
23208;BMP180;11773;52.570;13.052;2022-10-13T03:33:40;101743.00;;;11.10
23208;BMP180;11773;52.570;13.052;2022-10-13T03:36:11;101734.00;;;11.10
23208;BMP180;11773;52.570;13.052;2022-10-13T03:38:44;101725.00;;;11.10
23208;BMP180;11773;52.570;13.052;2022-10-13T03:41:16;101744.00;;;11.10
23208;BMP180;11773;52.570;13.052;2022-10-13T03:43:46;101736.00;;;11.10
23208;BMP180;11773;52.570;13.052;2022-10-13T03:46:17;101742.00;;;11.10
23208;BMP180;11773;52.570;13.052;2022-10-13T03:48:47;101751.00;;;11.10
23208;BMP180;11773;52.570;13.052;2022-10-13T03:51:20;101736.00;;;11.10
23208;BMP180;11773;52.570;13.052;2022-10-13T03:53:51;101739.00;;;11.20
23208;BMP180;11773;52.570;13.052;2022-10-13T03:56:26;101739.00;;;11.20
23208;BMP180;11773;52.570;13.052;2022-10-13T03:58:58;101740.00;;;11.20
23208;BMP180;11773;52.570;13.052;2022-10-13T04:01:29;101730.00;;;11.20
23208;BMP180;11773;52.570;13.052;2022-10-13T04:04:00;101734.00;;;11.20
23208;BMP180;11773;52.570;13.052;2022-10-13T04:06:32;101728.00;;;11.20
23208;BMP180;11773;52.570;13.052;2022-10-13T04:09:02;101730.00;;;11.20
23208;BMP180;11773;52.570;13.052;2022-10-13T04:11:32;101740.00;;;11.20
23208;BMP180;11773;52.570;13.052;2022-10-13T04:14:02;101727.00;;;11.30
23208;BMP180;11773;52.570;13.052;2022-10-13T04:16:32;101723.00;;;11.30
23208;BMP180;11773;52.570;13.052;2022-10-13T04:19:04;101725.00;;;11.20
23208;BMP180;11773;52.570;13.052;2022-10-13T04:21:35;101731.00;;;11.30
23208;BMP180;11773;52.570;13.052;2022-10-13T04:24:05;101735.00;;;11.30
23208;BMP180;11773;52.570;13.052;2022-10-13T04:26:35;101728.00;;;11.40
23208;BMP180;11773;52.570;13.052;2022-10-13T04:29:07;101726.00;;;11.40
23208;BMP180;11773;52.570;13.052;2022-10-13T04:31:39;101716.00;;;11.40
23208;BMP180;11773;52.570;13.052;2022-10-13T04:34:11;101715.00;;;11.40
23208;BMP180;11773;52.570;13.052;2022-10-13T04:36:40;101715.00;;;11.40
23208;BMP180;11773;52.570;13.052;2022-10-13T04:39:10;101722.00;;;11.40
23208;BMP180;11773;52.570;13.052;2022-10-13T04:41:39;101707.00;;;11.50
23208;BMP180;11773;52.570;13.052;2022-10-13T04:44:09;101708.00;;;11.50
23208;BMP180;11773;52.570;13.052;2022-10-13T04:46:38;101716.00;;;11.50
23208;BMP180;11773;52.570;13.052;2022-10-13T04:49:08;101714.00;;;11.60
23208;BMP180;11773;52.570;13.052;2022-10-13T04:51:37;101711.00;;;11.60
23208;BMP180;11773;52.570;13.052;2022-10-13T04:54:07;101713.00;;;11.60
23208;BMP180;11773;52.570;13.052;2022-10-13T04:56:37;101724.00;;;11.70
23208;BMP180;11773;52.570;13.052;2022-10-13T04:59:06;101698.00;;;11.70
23208;BMP180;11773;52.570;13.052;2022-10-13T05:01:36;101706.00;;;11.70
23208;BMP180;11773;52.570;13.052;2022-10-13T05:04:06;101703.00;;;11.70
23208;BMP180;11773;52.570;13.052;2022-10-13T05:06:40;101707.00;;;11.80
23208;BMP180;11773;52.570;13.052;2022-10-13T05:09:15;101720.00;;;11.80
23208;BMP180;11773;52.570;13.052;2022-10-13T05:11:44;101693.00;;;11.80
23208;BMP180;11773;52.570;13.052;2022-10-13T05:14:14;101697.00;;;11.70
23208;BMP180;11773;52.570;13.052;2022-10-13T05:16:43;101689.00;;;11.80
23208;BMP180;11773;52.570;13.052;2022-10-13T05:19:13;101705.00;;;11.80
23208;BMP180;11773;52.570;13.052;2022-10-13T05:21:42;101689.00;;;11.80
23208;BMP180;11773;52.570;13.052;2022-10-13T05:24:12;101695.00;;;11.80
23208;BMP180;11773;52.570;13.052;2022-10-13T05:26:43;101694.00;;;11.80
23208;BMP180;11773;52.570;13.052;2022-10-13T05:29:12;101688.00;;;11.80
23208;BMP180;11773;52.570;13.052;2022-10-13T05:31:42;101681.00;;;11.80
23208;BMP180;11773;52.570;13.052;2022-10-13T05:34:12;101682.00;;;11.80
23208;BMP180;11773;52.570;13.052;2022-10-13T05:36:41;101689.00;;;11.90
23208;BMP180;11773;52.570;13.052;2022-10-13T05:39:11;101680.00;;;11.90
23208;BMP180;11773;52.570;13.052;2022-10-13T05:41:40;101685.00;;;11.90
23208;BMP180;11773;52.570;13.052;2022-10-13T05:44:10;101681.00;;;12.00
23208;BMP180;11773;52.570;13.052;2022-10-13T05:46:40;101689.00;;;12.00
23208;BMP180;11773;52.570;13.052;2022-10-13T05:49:09;101693.00;;;12.00
23208;BMP180;11773;52.570;13.052;2022-10-13T05:51:43;101683.00;;;12.00
23208;BMP180;11773;52.570;13.052;2022-10-13T05:54:27;101688.00;;;12.10
23208;BMP180;11773;52.570;13.052;2022-10-13T05:57:24;101686.00;;;12.10
23208;BMP180;11773;52.570;13.052;2022-10-13T05:59:58;101694.00;;;12.00
23208;BMP180;11773;52.570;13.052;2022-10-13T06:02:32;101698.00;;;12.00
23208;BMP180;11773;52.570;13.052;2022-10-13T06:05:04;101692.00;;;12.10
23208;BMP180;11773;52.570;13.052;2022-10-13T06:07:36;101692.00;;;12.10
23208;BMP180;11773;52.570;13.052;2022-10-13T06:10:06;101709.00;;;12.10
23208;BMP180;11773;52.570;13.052;2022-10-13T06:12:35;101690.00;;;12.10
23208;BMP180;11773;52.570;13.052;2022-10-13T06:15:05;101682.00;;;12.10
23208;BMP180;11773;52.570;13.052;2022-10-13T06:17:39;101684.00;;;12.20
23208;BMP180;11773;52.570;13.052;2022-10-13T06:20:09;101685.00;;;12.20
23208;BMP180;11773;52.570;13.052;2022-10-13T06:22:39;101694.00;;;12.20
23208;BMP180;11773;52.570;13.052;2022-10-13T06:25:09;101691.00;;;12.20
23208;BMP180;11773;52.570;13.052;2022-10-13T06:27:38;101684.00;;;12.20
23208;BMP180;11773;52.570;13.052;2022-10-13T06:30:08;101685.00;;;12.20
23208;BMP180;11773;52.570;13.052;2022-10-13T06:32:38;101691.00;;;12.20
23208;BMP180;11773;52.570;13.052;2022-10-13T06:35:08;101682.00;;;12.30
23208;BMP180;11773;52.570;13.052;2022-10-13T06:37:37;101678.00;;;12.30
23208;BMP180;11773;52.570;13.052;2022-10-13T06:40:07;101681.00;;;12.30
23208;BMP180;11773;52.570;13.052;2022-10-13T06:42:37;101674.00;;;12.30
23208;BMP180;11773;52.570;13.052;2022-10-13T06:45:07;101684.00;;;12.30
23208;BMP180;11773;52.570;13.052;2022-10-13T06:47:37;101679.00;;;12.30
23208;BMP180;11773;52.570;13.052;2022-10-13T06:50:07;101684.00;;;12.30
23208;BMP180;11773;52.570;13.052;2022-10-13T06:52:37;101677.00;;;12.30
23208;BMP180;11773;52.570;13.052;2022-10-13T06:55:06;101684.00;;;12.40
23208;BMP180;11773;52.570;13.052;2022-10-13T06:57:36;101668.00;;;12.40
23208;BMP180;11773;52.570;13.052;2022-10-13T07:00:07;101673.00;;;12.40
23208;BMP180;11773;52.570;13.052;2022-10-13T07:02:36;101673.00;;;12.40
23208;BMP180;11773;52.570;13.052;2022-10-13T07:05:06;101679.00;;;12.50
23208;BMP180;11773;52.570;13.052;2022-10-13T07:07:35;101683.00;;;12.50
23208;BMP180;11773;52.570;13.052;2022-10-13T07:10:05;101682.00;;;12.50
23208;BMP180;11773;52.570;13.052;2022-10-13T07:12:35;101680.00;;;12.60
23208;BMP180;11773;52.570;13.052;2022-10-13T07:15:04;101673.00;;;12.70
23208;BMP180;11773;52.570;13.052;2022-10-13T07:17:34;101666.00;;;12.70
23208;BMP180;11773;52.570;13.052;2022-10-13T07:20:04;101663.00;;;12.70
23208;BMP180;11773;52.570;13.052;2022-10-13T07:22:34;101656.00;;;12.80
23208;BMP180;11773;52.570;13.052;2022-10-13T07:25:04;101658.00;;;12.80
23208;BMP180;11773;52.570;13.052;2022-10-13T07:27:34;101664.00;;;12.90
23208;BMP180;11773;52.570;13.052;2022-10-13T07:30:07;101659.00;;;13.00
23208;BMP180;11773;52.570;13.052;2022-10-13T07:32:36;101669.00;;;13.00
23208;BMP180;11773;52.570;13.052;2022-10-13T07:35:07;101665.00;;;13.10
23208;BMP180;11773;52.570;13.052;2022-10-13T07:37:38;101677.00;;;13.20
23208;BMP180;11773;52.570;13.052;2022-10-13T07:40:09;101678.00;;;13.20
23208;BMP180;11773;52.570;13.052;2022-10-13T07:42:38;101665.00;;;13.30
23208;BMP180;11773;52.570;13.052;2022-10-13T07:45:08;101681.00;;;13.40
23208;BMP180;11773;52.570;13.052;2022-10-13T07:47:38;101675.00;;;13.50
23208;BMP180;11773;52.570;13.052;2022-10-13T07:50:08;101672.00;;;13.60
23208;BMP180;11773;52.570;13.052;2022-10-13T07:52:38;101669.00;;;13.60
23208;BMP180;11773;52.570;13.052;2022-10-13T07:55:08;101661.00;;;13.70
23208;BMP180;11773;52.570;13.052;2022-10-13T07:57:38;101670.00;;;13.80
23208;BMP180;11773;52.570;13.052;2022-10-13T08:00:08;101668.00;;;13.90
23208;BMP180;11773;52.570;13.052;2022-10-13T08:02:38;101665.00;;;13.90
23208;BMP180;11773;52.570;13.052;2022-10-13T08:05:08;101661.00;;;14.00
23208;BMP180;11773;52.570;13.052;2022-10-13T08:07:37;101662.00;;;14.00
23208;BMP180;11773;52.570;13.052;2022-10-13T08:10:07;101664.00;;;14.10
23208;BMP180;11773;52.570;13.052;2022-10-13T08:12:37;101647.00;;;14.10
23208;BMP180;11773;52.570;13.052;2022-10-13T08:15:07;101645.00;;;14.20
23208;BMP180;11773;52.570;13.052;2022-10-13T08:17:37;101660.00;;;14.20
23208;BMP180;11773;52.570;13.052;2022-10-13T08:20:07;101648.00;;;14.30
23208;BMP180;11773;52.570;13.052;2022-10-13T08:22:38;101649.00;;;14.40
23208;BMP180;11773;52.570;13.052;2022-10-13T08:25:07;101650.00;;;14.40
23208;BMP180;11773;52.570;13.052;2022-10-13T08:27:37;101642.00;;;14.50
23208;BMP180;11773;52.570;13.052;2022-10-13T08:30:10;101637.00;;;14.60
23208;BMP180;11773;52.570;13.052;2022-10-13T08:32:40;101644.00;;;14.70
23208;BMP180;11773;52.570;13.052;2022-10-13T08:35:10;101648.00;;;14.70
23208;BMP180;11773;52.570;13.052;2022-10-13T08:37:39;101641.00;;;14.80
23208;BMP180;11773;52.570;13.052;2022-10-13T08:40:18;101637.00;;;14.90
23208;BMP180;11773;52.570;13.052;2022-10-13T08:42:45;101642.00;;;15.00
23208;BMP180;11773;52.570;13.052;2022-10-13T08:45:27;101627.00;;;15.10
23208;BMP180;11773;52.570;13.052;2022-10-13T08:48:03;101630.00;;;15.10
23208;BMP180;11773;52.570;13.052;2022-10-13T08:50:38;101639.00;;;15.20
23208;BMP180;11773;52.570;13.052;2022-10-13T08:53:33;101629.00;;;15.30
23208;BMP180;11773;52.570;13.052;2022-10-13T08:56:19;101617.00;;;15.30
23208;BMP180;11773;52.570;13.052;2022-10-13T08:58:51;101638.00;;;15.40
23208;BMP180;11773;52.570;13.052;2022-10-13T09:01:34;101621.00;;;15.50
23208;BMP180;11773;52.570;13.052;2022-10-13T09:04:28;101619.00;;;15.50
23208;BMP180;11773;52.570;13.052;2022-10-13T09:09:40;101623.00;;;15.60
23208;BMP180;11773;52.570;13.052;2022-10-13T09:12:12;101625.00;;;15.70
23208;BMP180;11773;52.570;13.052;2022-10-13T09:14:57;101623.00;;;15.80
23208;BMP180;11773;52.570;13.052;2022-10-13T09:17:29;101632.00;;;15.90
23208;BMP180;11773;52.570;13.052;2022-10-13T09:22:43;101622.00;;;16.00
23208;BMP180;11773;52.570;13.052;2022-10-13T09:25:19;101622.00;;;16.10
23208;BMP180;11773;52.570;13.052;2022-10-13T09:28:01;101633.00;;;16.20
23208;BMP180;11773;52.570;13.052;2022-10-13T09:30:41;101628.00;;;16.30
23208;BMP180;11773;52.570;13.052;2022-10-13T09:33:16;101638.00;;;16.30
23208;BMP180;11773;52.570;13.052;2022-10-13T09:38:32;101636.00;;;16.50
23208;BMP180;11773;52.570;13.052;2022-10-13T09:46:37;101637.00;;;16.70
23208;BMP180;11773;52.570;13.052;2022-10-13T09:49:28;101642.00;;;16.80
23208;BMP180;11773;52.570;13.052;2022-10-13T09:52:14;101639.00;;;16.80
23208;BMP180;11773;52.570;13.052;2022-10-13T09:54:51;101643.00;;;16.90
23208;BMP180;11773;52.570;13.052;2022-10-13T09:57:45;101634.00;;;17.00
23208;BMP180;11773;52.570;13.052;2022-10-13T10:00:25;101623.00;;;17.20
23208;BMP180;11773;52.570;13.052;2022-10-13T10:03:04;101638.00;;;17.30
23208;BMP180;11773;52.570;13.052;2022-10-13T10:05:48;101636.00;;;17.40
23208;BMP180;11773;52.570;13.052;2022-10-13T10:08:48;101631.00;;;17.40
23208;BMP180;11773;52.570;13.052;2022-10-13T10:11:44;101623.00;;;17.50
23208;BMP180;11773;52.570;13.052;2022-10-13T10:14:27;101620.00;;;17.50
23208;BMP180;11773;52.570;13.052;2022-10-13T10:20:43;101626.00;;;17.70
23208;BMP180;11773;52.570;13.052;2022-10-13T10:22:48;101629.00;;;17.80
23208;BMP180;11773;52.570;13.052;2022-10-13T10:25:36;101602.00;;;17.80
23208;BMP180;11773;52.570;13.052;2022-10-13T10:28:27;101602.00;;;17.90
23208;BMP180;11773;52.570;13.052;2022-10-13T10:37:18;101599.00;;;18.20
23208;BMP180;11773;52.570;13.052;2022-10-13T10:42:50;101597.00;;;18.40
23208;BMP180;11773;52.570;13.052;2022-10-13T10:45:36;101582.00;;;18.50
23208;BMP180;11773;52.570;13.052;2022-10-13T10:48:17;101573.00;;;18.60
23208;BMP180;11773;52.570;13.052;2022-10-13T10:50:48;101586.00;;;18.70
23208;BMP180;11773;52.570;13.052;2022-10-13T10:53:30;101564.00;;;18.70
23208;BMP180;11773;52.570;13.052;2022-10-13T10:56:22;101570.00;;;18.80
23208;BMP180;11773;52.570;13.052;2022-10-13T10:59:10;101570.00;;;18.90
23208;BMP180;11773;52.570;13.052;2022-10-13T11:04:45;101575.00;;;19.00
23208;BMP180;11773;52.570;13.052;2022-10-13T11:07:54;101569.00;;;19.00
23208;BMP180;11773;52.570;13.052;2022-10-13T11:10:19;101582.00;;;19.10
23208;BMP180;11773;52.570;13.052;2022-10-13T11:15:40;101578.00;;;19.30
23208;BMP180;11773;52.570;13.052;2022-10-13T11:18:43;101567.00;;;19.30
23208;BMP180;11773;52.570;13.052;2022-10-13T11:25:47;101544.00;;;19.50
23208;BMP180;11773;52.570;13.052;2022-10-13T11:31:48;101534.00;;;19.60
23208;BMP180;11773;52.570;13.052;2022-10-13T11:34:27;101540.00;;;19.60
23208;BMP180;11773;52.570;13.052;2022-10-13T11:37:00;101533.00;;;19.70
23208;BMP180;11773;52.570;13.052;2022-10-13T11:39:39;101515.00;;;19.70
23208;BMP180;11773;52.570;13.052;2022-10-13T11:42:34;101506.00;;;19.80
23208;BMP180;11773;52.570;13.052;2022-10-13T11:45:26;101513.00;;;19.80
23208;BMP180;11773;52.570;13.052;2022-10-13T11:48:24;101512.00;;;19.80
23208;BMP180;11773;52.570;13.052;2022-10-13T11:54:30;101506.00;;;19.90
23208;BMP180;11773;52.570;13.052;2022-10-13T11:56:56;101514.00;;;19.90
23208;BMP180;11773;52.570;13.052;2022-10-13T11:59:34;101526.00;;;20.00
23208;BMP180;11773;52.570;13.052;2022-10-13T12:02:13;101517.00;;;20.10
23208;BMP180;11773;52.570;13.052;2022-10-13T12:05:23;101523.00;;;20.10
23208;BMP180;11773;52.570;13.052;2022-10-13T12:07:57;101516.00;;;20.10
23208;BMP180;11773;52.570;13.052;2022-10-13T12:10:34;101537.00;;;20.20
23208;BMP180;11773;52.570;13.052;2022-10-13T12:13:04;101538.00;;;20.20
23208;BMP180;11773;52.570;13.052;2022-10-13T12:15:43;101511.00;;;20.30
23208;BMP180;11773;52.570;13.052;2022-10-13T12:18:25;101520.00;;;20.30
23208;BMP180;11773;52.570;13.052;2022-10-13T12:20:57;101510.00;;;20.40
23208;BMP180;11773;52.570;13.052;2022-10-13T12:23:29;101529.00;;;20.40
23208;BMP180;11773;52.570;13.052;2022-10-13T12:25:59;101506.00;;;20.50
23208;BMP180;11773;52.570;13.052;2022-10-13T12:31:37;101520.00;;;20.50
23208;BMP180;11773;52.570;13.052;2022-10-13T12:34:02;101535.00;;;20.50
23208;BMP180;11773;52.570;13.052;2022-10-13T12:36:33;101524.00;;;20.60
23208;BMP180;11773;52.570;13.052;2022-10-13T12:39:10;101525.00;;;20.60
23208;BMP180;11773;52.570;13.052;2022-10-13T12:41:44;101522.00;;;20.70
23208;BMP180;11773;52.570;13.052;2022-10-13T12:44:20;101523.00;;;20.70
23208;BMP180;11773;52.570;13.052;2022-10-13T12:46:54;101535.00;;;20.70
23208;BMP180;11773;52.570;13.052;2022-10-13T12:49:30;101529.00;;;20.70
23208;BMP180;11773;52.570;13.052;2022-10-13T12:52:15;101528.00;;;20.80
23208;BMP180;11773;52.570;13.052;2022-10-13T12:54:55;101530.00;;;20.80
23208;BMP180;11773;52.570;13.052;2022-10-13T12:57:36;101538.00;;;20.80
23208;BMP180;11773;52.570;13.052;2022-10-13T13:00:25;101525.00;;;20.80
23208;BMP180;11773;52.570;13.052;2022-10-13T13:03:04;101525.00;;;20.80
23208;BMP180;11773;52.570;13.052;2022-10-13T13:05:38;101522.00;;;20.90
23208;BMP180;11773;52.570;13.052;2022-10-13T13:08:29;101531.00;;;20.90
23208;BMP180;11773;52.570;13.052;2022-10-13T13:11:06;101516.00;;;20.90
23208;BMP180;11773;52.570;13.052;2022-10-13T13:13:36;101513.00;;;20.90
23208;BMP180;11773;52.570;13.052;2022-10-13T13:16:18;101515.00;;;21.00
23208;BMP180;11773;52.570;13.052;2022-10-13T13:18:50;101501.00;;;21.00
23208;BMP180;11773;52.570;13.052;2022-10-13T13:21:20;101508.00;;;21.00
23208;BMP180;11773;52.570;13.052;2022-10-13T13:23:49;101510.00;;;21.10
23208;BMP180;11773;52.570;13.052;2022-10-13T13:26:22;101512.00;;;21.10
23208;BMP180;11773;52.570;13.052;2022-10-13T13:28:54;101485.00;;;21.10
23208;BMP180;11773;52.570;13.052;2022-10-13T13:31:26;101482.00;;;21.10
23208;BMP180;11773;52.570;13.052;2022-10-13T13:33:55;101484.00;;;21.20
23208;BMP180;11773;52.570;13.052;2022-10-13T13:36:25;101469.00;;;21.20
23208;BMP180;11773;52.570;13.052;2022-10-13T13:38:55;101469.00;;;21.20
23208;BMP180;11773;52.570;13.052;2022-10-13T13:41:24;101473.00;;;21.20
23208;BMP180;11773;52.570;13.052;2022-10-13T13:43:56;101474.00;;;21.20
23208;BMP180;11773;52.570;13.052;2022-10-13T13:46:26;101488.00;;;21.20
23208;BMP180;11773;52.570;13.052;2022-10-13T13:48:56;101483.00;;;21.20
23208;BMP180;11773;52.570;13.052;2022-10-13T13:51:26;101470.00;;;21.20
23208;BMP180;11773;52.570;13.052;2022-10-13T13:53:55;101467.00;;;21.30
23208;BMP180;11773;52.570;13.052;2022-10-13T13:56:27;101462.00;;;21.30
23208;BMP180;11773;52.570;13.052;2022-10-13T13:58:56;101469.00;;;21.30
23208;BMP180;11773;52.570;13.052;2022-10-13T14:01:25;101461.00;;;21.30
23208;BMP180;11773;52.570;13.052;2022-10-13T14:03:55;101456.00;;;21.30
23208;BMP180;11773;52.570;13.052;2022-10-13T14:06:25;101461.00;;;21.40
23208;BMP180;11773;52.570;13.052;2022-10-13T14:08:54;101454.00;;;21.40
23208;BMP180;11773;52.570;13.052;2022-10-13T14:11:24;101459.00;;;21.40
23208;BMP180;11773;52.570;13.052;2022-10-13T14:13:53;101459.00;;;21.40
23208;BMP180;11773;52.570;13.052;2022-10-13T14:16:44;101453.00;;;21.40
23208;BMP180;11773;52.570;13.052;2022-10-13T14:19:13;101447.00;;;21.40
23208;BMP180;11773;52.570;13.052;2022-10-13T14:21:43;101463.00;;;21.40
23208;BMP180;11773;52.570;13.052;2022-10-13T14:24:13;101458.00;;;21.40
23208;BMP180;11773;52.570;13.052;2022-10-13T14:26:42;101454.00;;;21.50
23208;BMP180;11773;52.570;13.052;2022-10-13T14:29:12;101444.00;;;21.50
23208;BMP180;11773;52.570;13.052;2022-10-13T14:31:41;101445.00;;;21.50
23208;BMP180;11773;52.570;13.052;2022-10-13T14:34:11;101444.00;;;21.50
23208;BMP180;11773;52.570;13.052;2022-10-13T14:36:41;101436.00;;;21.50
23208;BMP180;11773;52.570;13.052;2022-10-13T14:39:10;101446.00;;;21.40
23208;BMP180;11773;52.570;13.052;2022-10-13T14:41:40;101437.00;;;21.40
23208;BMP180;11773;52.570;13.052;2022-10-13T14:44:12;101437.00;;;21.40
23208;BMP180;11773;52.570;13.052;2022-10-13T14:46:41;101433.00;;;21.40
23208;BMP180;11773;52.570;13.052;2022-10-13T14:49:11;101431.00;;;21.40
23208;BMP180;11773;52.570;13.052;2022-10-13T14:51:41;101421.00;;;21.40
23208;BMP180;11773;52.570;13.052;2022-10-13T14:54:10;101428.00;;;21.30
23208;BMP180;11773;52.570;13.052;2022-10-13T14:56:39;101431.00;;;21.30
23208;BMP180;11773;52.570;13.052;2022-10-13T14:59:10;101446.00;;;21.30
23208;BMP180;11773;52.570;13.052;2022-10-13T15:01:40;101451.00;;;21.30
23208;BMP180;11773;52.570;13.052;2022-10-13T15:04:11;101437.00;;;21.30
23208;BMP180;11773;52.570;13.052;2022-10-13T15:06:40;101438.00;;;21.30
23208;BMP180;11773;52.570;13.052;2022-10-13T15:09:10;101441.00;;;21.30
23208;BMP180;11773;52.570;13.052;2022-10-13T15:11:40;101459.00;;;21.30
23208;BMP180;11773;52.570;13.052;2022-10-13T15:14:09;101445.00;;;21.20
23208;BMP180;11773;52.570;13.052;2022-10-13T15:16:39;101450.00;;;21.20
23208;BMP180;11773;52.570;13.052;2022-10-13T15:19:08;101446.00;;;21.20
23208;BMP180;11773;52.570;13.052;2022-10-13T15:21:38;101449.00;;;21.20